METAR Data
IDs: Format: Raw Decoded Include TAF

Data at: 1853 UTC 14 Dec 2018

KPRS 141835Z AUTO 22008KT 10SM CLR 10/M06 A3041 RMK AO2 T01021060
KPRS 141815Z AUTO 24003KT 10SM CLR 10/M06 A3043 RMK AO2 T00961064
KPRS 141755Z AUTO 23006KT 10SM CLR 10/M06 A3045 RMK AO2 T00961063 10096 21009
KPRS 141735Z AUTO 21003KT 10SM CLR 09/M07 A3046 RMK AO2 T00931071
KPRS 141715Z AUTO 24003KT 10SM CLR 08/M08 A3047 RMK AO2 T00841077
KPRS 141655Z AUTO 00000KT 10SM CLR 08/M08 A3047 RMK AO2 T00791076
KPRS 141635Z AUTO 00000KT 10SM CLR 07/M07 A3048 RMK AO2 T00731074
KPRS 141615Z AUTO 00000KT 10SM CLR 06/M05 A3048 RMK AO2 T00611053
KPRS 141555Z AUTO 00000KT 10SM CLR 05/M05 A3047 RMK AO2 T00501055
KPRS 141535Z AUTO 00000KT 10SM CLR 04/M05 A3047 RMK AO2 T00421054
KPRS 141515Z AUTO 00000KT 10SM CLR 03/M03 A3046 RMK AO2 T00331034
KPRS 141455Z AUTO 00000KT 10SM CLR 03/M04 A3045 RMK AO2 T00251038
KPRS 141435Z AUTO 02003KT 10SM CLR 02/M05 A3044 RMK AO2 T00161048
KPRS 141415Z AUTO 36005KT 10SM CLR 00/M05 A3043 RMK AO2 T00021052
KPRS 141355Z AUTO 35005KT 10SM CLR 00/M05 A3042 RMK AO2 T10031050
KPRS 141335Z AUTO 35004KT 10SM CLR 00/M05 A3041 RMK AO2 T00011049
KPRS 141315Z AUTO 36003KT 10SM CLR M01/M04 A3041 RMK AO2 T10071038
KPRS 141255Z AUTO 01003KT 10SM CLR 00/M04 A3041 RMK AO2 T10041036
KPRS 141235Z AUTO 29006KT 10SM CLR M01/M03 A3040 RMK AO2 T10071035
KPRS 141215Z AUTO 30003KT 10SM CLR 00/M03 A3039 RMK AO2 T10031033
KPRS 141155Z AUTO 00000KT 10SM CLR 00/M04 A3038 RMK AO2 T00031039 10046 20003
KPRS 141135Z AUTO 25003KT 10SM CLR 02/M05 A3037 RMK AO2 T00221053
KPRS 141115Z AUTO 33003KT 10SM CLR 03/M06 A3037 RMK AO2 T00301062
KPRS 141055Z AUTO 33004KT 10SM CLR 02/M05 A3037 RMK AO2 T00221051
KPRS 141035Z AUTO 33003KT 10SM CLR 05/M07 A3036 RMK AO2 T00451069
KPRS 141015Z AUTO 00000KT 10SM CLR 03/M06 A3036 RMK AO2 T00331056
KPRS 140955Z AUTO 00000KT 10SM CLR 04/M06 A3035 RMK AO2 T00371058
KPRS 140935Z AUTO 00000KT 10SM CLR 02/M04 A3034 RMK AO2 T00201036
KPRS 140915Z AUTO 35008KT 10SM CLR 04/M05 A3034 RMK AO2 T00391050
KPRS 140855Z AUTO 34008KT 10SM CLR 03/M04 A3033 RMK AO2 T00311038
KPRS 140835Z AUTO 35007KT 10SM CLR 02/M03 A3033 RMK AO2 T00241031
KPRS 140815Z AUTO 01004KT 10SM CLR 02/M03 A3033 RMK AO2 T00201026
KPRS 140755Z AUTO 04004KT 10SM CLR 01/M02 A3032 RMK AO2 T00101020
KPRS 140735Z AUTO 36004KT 10SM CLR 02/M02 A3031 RMK AO2 T00241024
KPRS 140715Z AUTO 35006KT 10SM CLR 03/M02 A3031 RMK AO2 T00251024
KPRS 140655Z AUTO 36004KT 10SM CLR 03/M02 A3031 RMK AO2 T00281022
KPRS 140635Z AUTO 36006KT 10SM CLR 03/M02 A3030 RMK AO2 T00311020
KPRS 140615Z AUTO 36004KT 10SM CLR 03/M02 A3030 RMK AO2 T00271017
KPRS 140555Z AUTO 00000KT 10SM CLR 04/M02 A3030 RMK AO2 T00351019 10113 20031 401350031
KPRS 140535Z AUTO 34005KT 10SM CLR 03/M01 A3030 RMK AO2 T00321015
KPRS 140515Z AUTO 36004KT 10SM CLR 04/M02 A3029 RMK AO2 T00411018
KPRS 140455Z AUTO 01005KT 10SM CLR 04/M02 A3029 RMK AO2 T00421016
KPRS 140435Z AUTO 35004KT 10SM CLR 04/M01 A3029 RMK AO2 T00441013
KPRS 140415Z AUTO 00000KT 10SM CLR 05/M01 A3028 RMK AO2 T00491010
KPRS 140355Z AUTO 00000KT 10SM CLR 05/00 A3028 RMK AO2 T00491005
KPRS 140335Z AUTO 35003KT 10SM CLR 05/00 A3027 RMK AO2 T00460001
KPRS 140315Z AUTO 28004KT 10SM CLR 05/00 A3027 RMK AO2 T00520002
KPRS 140255Z AUTO 27005KT 10SM CLR 05/00 A3027 RMK AO2 T00540004
KPRS 140235Z AUTO 30004KT 10SM CLR 06/00 A3025 RMK AO2 T00610000
KPRS 140215Z AUTO 35003KT 10SM CLR 06/00 A3025 RMK AO2 T00620000
KPRS 140155Z AUTO 28007KT 10SM CLR 07/00 A3024 RMK AO2 T00670000
KPRS 140135Z AUTO 28008KT 10SM CLR 08/00 A3024 RMK AO2 T00771004
KPRS 140115Z AUTO 28006KT 10SM CLR 09/M01 A3023 RMK AO2 T00851015
KPRS 140055Z AUTO 28007KT 10SM CLR 10/M03 A3023 RMK AO2 T01001027
KPRS 140035Z AUTO 29011KT 10SM CLR 11/M03 A3023 RMK AO2 T01051029
KPRS 140015Z AUTO 30011G14KT 10SM CLR 11/M02 A3022 RMK AO2 T01081025
KPRS 132355Z AUTO 28009KT 10SM SCT085 12/M03 A3022 RMK AO2 T01151026 10134 20115
KPRS 132335Z AUTO 29011G18KT 10SM CLR 12/M03 A3022 RMK AO2 T01181026
KPRS 132315Z AUTO 29013G23KT 10SM CLR 12/M03 A3021 RMK AO2 T01221026
KPRS 132255Z AUTO 27012G19KT 10SM CLR 13/M02 A3021 RMK AO2 T01261023
KPRS 132235Z AUTO 27013G23KT 10SM CLR 13/M02 A3021 RMK AO2 T01261025
KPRS 132215Z AUTO 26012G21KT 10SM CLR 13/M03 A3021 RMK AO2 T01291027
KPRS 132155Z AUTO 28009G14KT 10SM CLR 13/M02 A3021 RMK AO2 T01291025
KPRS 132135Z AUTO 30007G16KT 10SM SCT065 13/M03 A3022 RMK AO2 T01301028
KPRS 132115Z AUTO 28010G17KT 10SM BKN065 13/M01 A3022 RMK AO2 T01261015
KPRS 132055Z AUTO 29007G15KT 260V320 10SM SCT065 13/M02 A3022 RMK AO2 T01281018
KPRS 132035Z AUTO 35009G17KT 280V360 10SM CLR 13/M02 A3022 RMK AO2 T01251025
KPRS 132015Z AUTO 32015G23KT 290V350 10SM CLR 12/M02 A3022 RMK AO2 T01221024
KPRS 131955Z AUTO 34013G23KT 10SM SCT060 12/M02 A3022 RMK AO2 T01231024
KPRS 131935Z AUTO 29019G27KT 10SM CLR 13/M01 A3022 RMK AO2 T01251015
KPRS 131915Z AUTO 30016G27KT 10SM SCT065 13/M01 A3021 RMK AO2 T01281010
KPRS 131855Z AUTO 29017G31KT 10SM SCT065 SCT075 13/M02 A3021 RMK AO2 T01291022
KPRS 131835Z AUTO 30017G25KT 10SM SCT075 13/M02 A3021 RMK AO2 T01331025
KPRS 131815Z AUTO 28017G26KT 10SM CLR 13/M04 A3022 RMK AO2 T01301038
KPRS 131755Z AUTO 28019G27KT 10SM CLR 13/M05 A3022 RMK AO2 T01271047 10127 20102
KPRS 131735Z AUTO 29016G28KT 10SM CLR 12/M05 A3021 RMK AO2 T01241046
KPRS 131715Z AUTO 29018G27KT 10SM CLR 12/M05 A3021 RMK AO2 T01221050
KPRS 131655Z AUTO 30016G24KT 10SM CLR 12/M06 A3020 RMK AO2 LTG DSNT N AND S T01201056
KPRS 131635Z AUTO 28020G26KT 10SM CLR 12/M07 A3019 RMK AO2 T01161066
KPRS 131615Z AUTO 29017G26KT 10SM CLR 12/M07 A3018 RMK AO2 T01151068
KPRS 131555Z AUTO 30019G26KT 10SM CLR 11/M07 A3016 RMK AO2 T01141075
KPRS 131535Z AUTO 29020G31KT 10SM CLR 11/M08 A3014 RMK AO2 LTG DSNT N AND S T01111084
KPRS 131515Z AUTO 28016G26KT 10SM CLR 11/M07 A3012 RMK AO2 T01081075
KPRS 131455Z AUTO 29022G32KT 10SM CLR 11/M06 A3009 RMK AO2 T01081061
KPRS 131435Z AUTO 28017G28KT 10SM CLR 11/M05 A3007 RMK AO2 T01071052
KPRS 131415Z AUTO 28018G23KT 10SM CLR 10/M04 A3006 RMK AO2 T01021040
KPRS 131355Z AUTO 29014G25KT 10SM CLR 11/M04 A3004 RMK AO2 T01091039
KPRS 131335Z AUTO 30017G22KT 10SM CLR 11/00 A3003 RMK AO2 T01101003
KPRS 131315Z AUTO 29013G26KT 10SM SCT070 12/01 A3000 RMK AO2 T01150006
KPRS 131255Z AUTO 27011KT 10SM SCT070 12/01 A2998 RMK AO2 T01210014
KPRS 131235Z AUTO 27010G16KT 10SM BKN070 12/03 A2997 RMK AO2 T01150028
KPRS 131215Z AUTO 28011G16KT 10SM BKN070 11/04 A2997 RMK AO2 T01130035
KPRS 131155Z AUTO 26009G15KT 10SM SCT070 12/03 A2996 RMK AO2 70011 T01240030 10135 20070
KPRS 131135Z AUTO 26011G17KT 10SM CLR 13/03 A2994 RMK AO2 T01270032
KPRS 131115Z AUTO 26012G29KT 10SM CLR 13/04 A2994 RMK AO2 T01260042
KPRS 131055Z AUTO 25008KT 10SM CLR 09/06 A2994 RMK AO2 T00890060
KPRS 131035Z AUTO 27005KT 10SM CLR 07/06 A2995 RMK AO2 T00730058
KPRS 131015Z AUTO 00000KT 10SM CLR 08/06 A2995 RMK AO2 T00760062
KPRS 130955Z AUTO 02004KT 10SM CLR 08/06 A2995 RMK AO2 T00790064
KPRS 130935Z AUTO 00000KT 10SM CLR 08/07 A2994 RMK AO2 T00800065
KPRS 130915Z AUTO 00000KT 10SM CLR 09/07 A2994 RMK AO2 T00910066
KPRS 130855Z AUTO 31003KT 10SM CLR 08/07 A2995 RMK AO2 T00800066
KPRS 130840Z AUTO 02003KT 10SM CLR 08/07 A2994 RMK AO2 T00820066
KPRS 130815Z AUTO 03003KT 10SM CLR 08/07 A2994 RMK AO2 T00800068
KPRS 130755Z AUTO 36004KT 10SM CLR 08/07 A2994 RMK AO2 T00830070
KPRS 130735Z AUTO 35004KT 10SM CLR 09/07 A2994 RMK AO2 T00850071
KPRS 130715Z AUTO 00000KT 10SM CLR 08/07 A2994 RMK AO2 T00800070
KPRS 130655Z AUTO 00000KT 10SM CLR 08/07 A2994 RMK AO2 T00840071